Winner, South Dakota
Current Conditions -  °F | °C
As of 7:53 AM on Wednesday 26 Nov 2014 (Local Time) from KICR Reporting Station
Overcast Overcast  
Wind Chill:   Ceiling: 1300
Heat Index: 21°   Visibility: 10mi
Dew Point: 15°   Wind: 22mph
Humidity: 78%   Direction: 350°N
Pressure: 30.23"   Gusts: 29mph
Location:  43.38°N, 99.86°W
Report Text: KICR 261353Z AUTO 35019G25KT 10SM OVC013 M06/M09 A3023 RMK AO2 SLP261 T10611094
Loading
Personal Weather Stations






























Interactive Weather Map New forecast layout! Learn more

10-Day Weather Forecast

Advertisements
Track Severe Weather on mobile